Time;durP1;ratioP1;P1;durP2;ratioP2;P2;SDS_P1;SDS_P2;PMS_P1;PMS_P2;Temp;Humidity;BMP_temperature;BMP_pressure;BME280_temperature;BME280_humidity;BME280_pressure;Samples;Min_cycle;Max_cycle;Signal;HPM_P1;HPM_P2
2022/06/07 00:01:16;;;;;;;2.03;1.85;;;16.50;99.90;;;;;;5253636;28;20020;-79
2022/06/07 00:03:48;;;;;;;3.15;2.00;;;16.50;99.90;;;;;;5271308;28;20237;-80
2022/06/07 00:06:19;;;;;;;3.67;2.40;;;16.50;99.90;;;;;;5223548;28;20051;-80
2022/06/07 00:08:51;;;;;;;8.07;2.47;;;16.40;99.90;;;;;;5253544;28;20035;-80
2022/06/07 00:11:32;;;;;;;13.40;2.92;;;16.30;99.90;;;;;;5261942;28;20499;-77
2022/06/07 00:14:04;;;;;;;3.22;2.85;;;16.30;99.90;;;;;;5236946;28;20039;-77
2022/06/07 00:16:37;;;;;;;2.30;1.98;;;16.30;99.90;;;;;;5228786;28;20029;-79
2022/06/07 00:19:08;;;;;;;4.15;2.33;;;16.20;99.90;;;;;;5228740;28;20418;-82
2022/06/07 00:21:42;;;;;;;5.80;2.55;;;16.30;99.90;;;;;;5236081;28;20021;-79
2022/06/07 00:24:15;;;;;;;3.45;2.05;;;16.20;99.90;;;;;;5239305;28;20089;-78
2022/06/07 00:26:47;;;;;;;2.70;2.17;;;16.20;99.90;;;;;;5274653;28;20030;-80
2022/06/07 00:29:19;;;;;;;3.53;2.58;;;16.20;99.90;;;;;;5274716;28;20023;-81
2022/06/07 00:31:53;;;;;;;2.85;2.28;;;16.10;99.90;;;;;;5248403;28;20017;-78
2022/06/07 00:34:25;;;;;;;;;;;16.10;99.90;;;;;;5237648;28;20035;-80
2022/06/07 00:37:06;;;;;;;2.33;2.13;;;16.10;99.90;;;;;;5238815;28;19914;-78
2022/06/07 00:39:38;;;;;;;3.03;2.47;;;16.10;99.90;;;;;;5236590;28;20062;-79
2022/06/07 00:42:12;;;;;;;2.10;1.90;;;16.10;99.90;;;;;;5236366;28;20056;-79
2022/06/07 00:44:47;;;;;;;3.88;2.42;;;16.10;99.90;;;;;;5252753;28;20036;-80
2022/06/07 00:47:26;;;;;;;2.70;2.30;;;16.00;99.90;;;;;;5254181;28;20038;-82
2022/06/07 00:50:13;;;;;;;2.97;2.22;;;16.00;99.90;;;;;;5253798;28;20027;-79
2022/06/07 00:52:47;;;;;;;3.50;2.05;;;15.90;99.90;;;;;;5245769;28;20016;-81
2022/06/07 00:55:23;;;;;;;3.53;2.35;;;15.90;99.90;;;;;;5253318;28;20019;-79
2022/06/07 00:57:57;;;;;;;2.63;2.30;;;15.80;99.90;;;;;;5215277;28;20025;-79
2022/06/07 01:00:30;;;;;;;2.80;2.50;;;15.80;99.90;;;;;;5232861;28;20027;-78
2022/06/07 01:03:07;;;;;;;3.17;2.80;;;15.80;99.90;;;;;;5232668;28;20456;-82
2022/06/07 01:05:44;;;;;;;3.63;2.85;;;15.80;99.90;;;;;;5200355;28;20053;-78
2022/06/07 01:11:07;;;;;;;4.28;2.65;;;15.70;99.90;;;;;;5221111;28;20024;-81
2022/06/07 01:13:41;;;;;;;5.53;2.40;;;15.70;99.90;;;;;;5201354;28;20043;-80
2022/06/07 01:16:12;;;;;;;3.60;3.30;;;15.70;99.90;;;;;;5234773;28;20063;-82
2022/06/07 01:18:49;;;;;;;2.75;2.40;;;15.70;99.90;;;;;;5218815;28;20025;-80
2022/06/07 01:21:27;;;;;;;3.65;3.10;;;15.70;99.90;;;;;;5252951;28;20024;-82
2022/06/07 01:23:58;;;;;;;2.20;2.00;;;15.70;99.90;;;;;;5253149;28;20024;-79
2022/06/07 01:26:30;;;;;;;2.65;2.45;;;15.70;99.90;;;;;;5263583;28;20038;-80
2022/06/07 01:29:04;;;;;;;4.93;2.55;;;15.70;99.90;;;;;;5238912;28;20028;-80
2022/06/07 01:31:37;;;;;;;2.97;2.55;;;15.70;99.90;;;;;;5253520;28;20029;-80
2022/06/07 01:34:10;;;;;;;3.30;2.35;;;15.60;99.90;;;;;;5253226;28;20020;-80
2022/06/07 01:36:43;;;;;;;3.40;2.47;;;15.70;99.90;;;;;;5252902;28;20035;-80
2022/06/07 01:42:10;;;;;;;2.53;2.00;;;15.60;99.90;;;;;;5246693;28;20025;-80
2022/06/07 01:44:44;;;;;;;3.00;2.55;;;15.60;99.90;;;;;;5252677;28;20024;-80
2022/06/07 01:47:25;;;;;;;2.90;2.63;;;15.60;99.90;;;;;;5252340;28;20036;-80
2022/06/07 01:50:02;;;;;;;3.05;2.38;;;15.60;99.90;;;;;;5252374;28;20025;-80
2022/06/07 01:52:39;;;;;;;2.47;2.10;;;15.60;99.90;;;;;;5234214;28;20545;-81
2022/06/07 01:55:12;;;;;;;2.20;2.00;;;15.60;99.90;;;;;;5230426;28;20461;-80
2022/06/07 01:57:44;;;;;;;4.80;2.25;;;15.50;99.90;;;;;;5218661;28;20445;-80
2022/06/07 02:00:16;;;;;;;2.45;2.25;;;15.60;99.90;;;;;;5217112;28;20028;-81
2022/06/07 02:02:52;;;;;;;2.38;2.17;;;15.50;99.90;;;;;;5197328;28;20037;-80
2022/06/07 02:05:23;;;;;;;2.42;2.22;;;15.50;99.90;;;;;;5241895;28;20033;-80
2022/06/07 02:07:55;;;;;;;2.17;1.98;;;15.50;99.90;;;;;;5229618;28;20333;-79
2022/06/07 02:10:26;;;;;;;3.00;2.67;;;15.50;99.90;;;;;;5231555;28;20024;-80
2022/06/07 02:12:59;;;;;;;2.92;2.55;;;15.50;99.90;;;;;;5217310;28;20024;-79
2022/06/07 02:15:30;;;;;;;3.45;2.22;;;15.50;99.90;;;;;;5217944;28;20028;-81
2022/06/07 02:18:04;;;;;;;2.55;2.35;;;15.40;99.90;;;;;;5251623;28;20489;-80
2022/06/07 02:20:37;;;;;;;2.65;2.17;;;15.40;99.90;;;;;;5217186;28;20025;-80
2022/06/07 02:23:13;;;;;;;3.70;2.17;;;15.40;99.90;;;;;;5217016;28;20042;-79
2022/06/07 02:25:49;;;;;;;2.60;2.40;;;15.40;99.90;;;;;;5233135;28;20401;-80
2022/06/07 02:28:25;;;;;;;3.13;2.40;;;15.30;99.90;;;;;;5249116;28;20035;-79
2022/06/07 02:30:59;;;;;;;3.08;2.50;;;15.30;99.90;;;;;;5248984;28;20052;-79
2022/06/07 02:33:32;;;;;;;;;;;15.30;99.90;;;;;;5239751;28;20057;-78
2022/06/07 02:36:10;;;;;;;6.07;2.35;;;15.40;99.90;;;;;;5235535;28;19908;-77
2022/06/07 02:38:42;;;;;;;3.72;2.28;;;15.40;99.90;;;;;;5232612;28;20029;-78
2022/06/07 02:41:18;;;;;;;3.25;2.22;;;15.40;99.90;;;;;;5223375;28;20360;-78
2022/06/07 02:43:50;;;;;;;2.83;2.00;;;15.40;99.90;;;;;;5233447;28;20032;-77
2022/06/07 02:46:29;;;;;;;8.38;2.90;;;15.40;99.90;;;;;;5251068;28;20024;-80
2022/06/07 02:49:00;;;;;;;2.55;2.25;;;15.40;99.90;;;;;;5250287;28;20253;-81
2022/06/07 02:51:32;;;;;;;2.97;2.22;;;15.40;99.90;;;;;;5232755;28;20024;-78
2022/06/07 02:54:10;;;;;;;2.90;2.42;;;15.40;99.90;;;;;;5250681;28;20027;-79
2022/06/07 02:56:41;;;;;;;3.13;1.95;;;15.40;99.90;;;;;;5215724;28;20056;-77
2022/06/07 02:59:13;;;;;;;2.78;1.95;;;15.40;99.90;;;;;;5232313;28;20427;-77
2022/06/07 03:01:50;;;;;;;3.85;2.30;;;15.40;99.90;;;;;;5223525;28;20362;-79
2022/06/07 03:04:24;;;;;;;2.45;2.25;;;15.50;99.90;;;;;;5213766;28;20379;-79
2022/06/07 03:06:59;;;;;;;2.83;2.47;;;15.40;99.90;;;;;;5223703;28;20023;-79
2022/06/07 03:09:33;;;;;;;2.08;1.98;;;15.40;99.90;;;;;;5245849;28;20316;-78
2022/06/07 03:12:05;;;;;;;2.67;2.45;;;15.40;99.90;;;;;;5241758;28;20020;-78
2022/06/07 03:14:36;;;;;;;3.08;2.75;;;15.30;99.90;;;;;;5249549;28;20021;-79
2022/06/07 03:17:09;;;;;;;2.60;1.80;;;15.30;99.90;;;;;;5250142;28;20031;-78
2022/06/07 03:19:42;;;;;;;2.92;2.30;;;15.30;99.90;;;;;;5232043;28;20020;-78
2022/06/07 03:22:14;;;;;;;2.53;2.33;;;15.30;99.90;;;;;;5246261;28;20481;-79
2022/06/07 03:24:51;;;;;;;3.08;2.08;;;15.30;99.90;;;;;;5228316;28;20039;-78
2022/06/07 03:27:25;;;;;;;2.60;2.40;;;15.40;99.90;;;;;;5228874;28;20257;-79
2022/06/07 03:29:59;;;;;;;3.03;2.20;;;15.60;99.90;;;;;;5252317;28;20032;-78
2022/06/07 03:32:30;;;;;;;6.47;2.45;;;15.70;99.90;;;;;;5240307;28;20033;-77
2022/06/07 03:35:04;;;;;;;2.45;2.13;;;15.80;99.90;;;;;;5226441;28;20040;-78
2022/06/07 03:37:36;;;;;;;2.60;2.33;;;15.90;99.90;;;;;;5249394;28;20024;-78
2022/06/07 03:40:12;;;;;;;2.80;2.13;;;16.10;99.90;;;;;;5249096;28;20020;-80
2022/06/07 03:42:46;;;;;;;2.05;1.85;;;16.30;99.90;;;;;;5244528;28;20027;-80
2022/06/07 03:45:18;;;;;;;2.13;1.92;;;16.40;99.90;;;;;;5248066;28;20030;-79
2022/06/07 03:47:49;;;;;;;2.35;2.13;;;16.60;99.90;;;;;;5230100;28;20027;-78
2022/06/07 03:50:20;;;;;;;2.53;1.98;;;16.80;99.90;;;;;;5248705;28;20027;-77
2022/06/07 03:53:00;;;;;;;2.33;1.75;;;16.90;99.90;;;;;;5230365;28;20037;-79
2022/06/07 03:55:37;;;;;;;2.45;1.75;;;17.00;99.90;;;;;;5248144;28;20024;-80
2022/06/07 03:58:13;;;;;;;2.38;1.88;;;17.20;99.90;;;;;;5229437;28;20359;-79
2022/06/07 04:00:44;;;;;;;2.00;1.85;;;17.30;99.90;;;;;;5230228;28;20394;-78
2022/06/07 04:03:16;;;;;;;1.58;1.45;;;17.50;99.90;;;;;;5239564;28;20025;-79
2022/06/07 04:05:48;;;;;;;1.65;1.52;;;17.50;99.90;;;;;;5220515;28;20045;-76
2022/06/07 04:08:21;;;;;;;5.78;2.20;;;17.40;99.90;;;;;;5251352;28;20035;-78
2022/06/07 04:10:56;;;;;;;2.85;1.70;;;17.30;99.90;;;;;;5233832;28;20245;-77
2022/06/07 04:13:33;;;;;;;2.22;2.03;;;17.30;99.90;;;;;;5245323;28;20039;-77
2022/06/07 04:16:13;;;;;;;4.70;1.70;;;17.20;99.90;;;;;;5252095;28;20035;-77
2022/06/07 04:18:45;;;;;;;2.00;1.70;;;17.20;99.90;;;;;;5254870;28;20016;-77
2022/06/07 04:21:17;;;;;;;2.03;1.73;;;17.40;99.90;;;;;;5274457;28;20206;-79
2022/06/07 04:23:54;;;;;;;1.80;1.52;;;17.50;99.90;;;;;;5251463;28;20033;-80
2022/06/07 04:26:27;;;;;;;3.22;1.92;;;17.80;99.90;;;;;;5252442;28;20024;-80
2022/06/07 04:29:01;;;;;;;2.33;2.13;;;18.00;99.90;;;;;;5254161;28;20016;-78
2022/06/07 04:31:36;;;;;;;2.10;1.85;;;18.30;99.90;;;;;;5254482;28;20040;-77
2022/06/07 04:34:08;;;;;;;2.28;1.80;;;18.50;99.90;;;;;;5234249;28;20054;-80
2022/06/07 04:36:41;;;;;;;2.05;1.75;;;18.80;99.90;;;;;;5249267;28;20025;-79
2022/06/07 04:39:16;;;;;;;2.43;2.20;;;19.00;99.90;;;;;;5268261;28;20019;-81
2022/06/07 04:41:47;;;;;;;;;;;19.20;99.90;;;;;;5234365;28;20279;-80
2022/06/07 04:44:23;;;;;;;1.90;1.45;;;19.50;99.90;;;;;;5251988;28;20122;-81
2022/06/07 04:46:58;;;;;;;1.40;1.30;;;19.80;99.90;;;;;;5252755;28;20035;-80
2022/06/07 04:49:29;;;;;;;2.17;1.80;;;20.20;99.90;;;;;;5252931;28;20032;-81
2022/06/07 04:52:02;;;;;;;1.90;1.60;;;20.50;99.90;;;;;;5252087;28;20033;-79
2022/06/07 04:54:36;;;;;;;4.03;1.53;;;20.70;99.90;;;;;;5256538;28;20019;-82
2022/06/07 04:57:07;;;;;;;2.30;1.73;;;20.90;99.90;;;;;;5252450;28;20269;-77
2022/06/07 04:59:41;;;;;;;1.92;1.73;;;21.20;99.90;;;;;;5252689;28;20322;-80
2022/06/07 05:02:12;;;;;;;2.05;1.60;;;21.30;99.90;;;;;;5250528;28;20020;-76
2022/06/07 05:04:45;;;;;;;1.60;1.50;;;21.40;99.90;;;;;;5220527;28;20048;-77
2022/06/07 05:07:19;;;;;;;4.13;1.83;;;21.40;99.90;;;;;;5222012;28;20028;-79
2022/06/07 05:09:50;;;;;;;2.42;1.98;;;21.50;99.90;;;;;;5260899;28;20021;-79
2022/06/07 05:12:22;;;;;;;2.55;1.67;;;21.80;99.90;;;;;;5232247;28;20593;-78
2022/06/07 05:14:57;;;;;;;2.20;2.00;;;21.90;99.90;;;;;;5230561;28;20513;-77
2022/06/07 05:17:31;;;;;;;2.30;1.70;;;21.90;99.90;;;;;;5230785;28;20027;-77
2022/06/07 05:20:07;;;;;;;4.50;2.70;;;22.00;99.90;;;;;;5213444;28;20037;-76
2022/06/07 05:22:44;;;;;;;3.53;2.10;;;22.30;99.90;;;;;;5237279;28;20024;-80
2022/06/07 05:25:16;;;;;;;2.33;2.05;;;22.60;99.90;;;;;;5216984;28;20039;-77
2022/06/07 05:27:52;;;;;;;2.35;1.92;;;22.70;99.90;;;;;;5216571;28;20047;-80
2022/06/07 05:30:23;;;;;;;2.53;2.22;;;23.10;99.90;;;;;;5251118;28;20031;-79
2022/06/07 05:32:54;;;;;;;4.45;2.70;;;23.60;99.90;;;;;;5249947;28;20110;-79
2022/06/07 05:35:28;;;;;;;2.25;2.00;;;23.70;99.90;;;;;;5242050;28;20044;-79
2022/06/07 05:37:59;;;;;;;1.77;1.67;;;23.70;99.90;;;;;;5271023;28;20469;-77
2022/06/07 05:40:30;;;;;;;2.30;2.10;;;23.80;99.90;;;;;;5272209;28;20102;-78
2022/06/07 05:43:03;;;;;;;2.30;2.08;;;24.20;99.90;;;;;;5253991;28;20334;-77
2022/06/07 05:45:34;;;;;;;2.80;2.20;;;24.70;99.90;;;;;;5233275;28;20030;-77
2022/06/07 05:48:09;;;;;;;2.20;1.85;;;25.10;99.90;;;;;;5251359;28;20464;-78
2022/06/07 05:50:50;;;;;;;2.33;1.92;;;24.90;99.90;;;;;;5233435;28;20041;-78
2022/06/07 05:53:24;;;;;;;1.92;1.83;;;25.00;99.90;;;;;;5251258;28;20810;-80
2022/06/07 05:56:07;;;;;;;1.73;1.63;;;25.30;99.90;;;;;;5230681;28;20017;-79
2022/06/07 05:58:44;;;;;;;1.85;1.67;;;25.90;99.90;;;;;;5267751;28;20036;-79
2022/06/07 06:01:18;;;;;;;2.42;1.38;;;25.90;99.90;;;;;;5249724;28;20024;-78
2022/06/07 06:03:49;;;;;;;1.80;1.70;;;25.80;99.90;;;;;;5251066;28;20600;-79
2022/06/07 06:06:21;;;;;;;2.28;1.88;;;25.40;99.90;;;;;;5239481;28;20055;-77
2022/06/07 06:11:44;;;;;;;1.90;1.75;;;25.30;99.90;;;;;;5250816;28;20047;-79
2022/06/07 06:14:18;;;;;;;3.55;1.45;;;25.00;99.90;;;;;;5249758;28;20028;-77
2022/06/07 06:17:01;;;;;;;2.08;1.73;;;25.10;99.90;;;;;;5250676;28;20050;-79
2022/06/07 06:19:33;;;;;;;2.35;1.92;;;25.20;99.90;;;;;;5251573;28;20600;-82
2022/06/07 06:22:07;;;;;;;3.20;1.92;;;25.20;99.90;;;;;;5215253;28;20031;-81
2022/06/07 06:24:43;;;;;;;1.90;1.48;;;25.30;99.90;;;;;;5246061;28;20035;-83
2022/06/07 06:27:14;;;;;;;1.63;1.40;;;25.30;99.90;;;;;;5258151;28;20042;-82
2022/06/07 06:29:53;;;;;;;2.15;1.52;;;25.10;99.90;;;;;;5238563;28;20028;-83
2022/06/07 06:32:27;;;;;;;1.70;1.60;;;25.10;99.90;;;;;;5234006;28;20032;-82
2022/06/07 06:35:01;;;;;;;1.67;1.58;;;25.30;99.90;;;;;;5253774;28;20021;-85
2022/06/07 06:37:37;;;;;;;2.45;1.40;;;25.40;99.90;;;;;;5250125;28;20036;-82
2022/06/07 06:40:12;;;;;;;2.10;1.85;;;25.30;99.90;;;;;;5253787;28;20571;-80
2022/06/07 06:42:47;;;;;;;2.97;1.90;;;25.10;99.90;;;;;;5245418;28;20030;-80
2022/06/07 06:45:23;;;;;;;3.67;1.85;;;25.30;99.90;;;;;;5224917;28;20054;-82
2022/06/07 06:47:54;;;;;;;1.55;1.45;;;25.50;99.90;;;;;;5248133;28;20024;-82
2022/06/07 06:50:26;;;;;;;1.98;1.80;;;25.30;99.90;;;;;;5233261;28;20036;-83
2022/06/07 06:52:57;;;;;;;1.65;1.48;;;24.90;99.90;;;;;;5250813;28;20024;-82
2022/06/07 06:55:29;;;;;;;2.42;1.60;;;25.30;99.90;;;;;;5243511;28;20025;-82
2022/06/07 06:58:00;;;;;;;1.70;1.60;;;25.40;99.90;;;;;;5250652;28;20035;-83
2022/06/07 07:00:34;;;;;;;1.67;1.58;;;24.90;99.90;;;;;;5249458;28;20460;-82
2022/06/07 07:03:05;;;;;;;2.22;2.00;;;24.90;99.90;;;;;;5230607;28;20035;-83
2022/06/07 07:05:40;;;;;;;1.98;1.77;;;25.30;99.90;;;;;;5222097;28;20071;-82
2022/06/07 07:08:16;;;;;;;2.20;1.70;;;25.60;99.90;;;;;;5246849;28;20024;-82
2022/06/07 07:10:47;;;;;;;1.45;1.35;;;25.80;99.90;;;;;;5233224;28;20036;-81
2022/06/07 07:13:19;;;;;;;2.38;1.52;;;26.30;99.90;;;;;;5251274;28;20028;-83
2022/06/07 07:15:50;;;;;;;1.55;1.45;;;26.50;99.90;;;;;;5250849;28;20020;-82
2022/06/07 07:18:21;;;;;;;2.05;1.65;;;27.10;99.90;;;;;;5250170;28;20035;-81
2022/06/07 07:20:54;;;;;;;1.40;1.30;;;27.80;99.90;;;;;;5233185;28;20028;-82
2022/06/07 07:23:25;;;;;;;1.48;1.38;;;28.80;99.90;;;;;;5245674;28;20028;-82
2022/06/07 07:26:14;;;;;;;1.90;1.23;;;29.00;99.90;;;;;;5252847;28;20024;-83
2022/06/07 07:28:46;;;;;;;1.90;1.48;;;28.90;99.90;;;;;;5228605;28;20504;-82
2022/06/07 07:31:20;;;;;;;1.58;1.48;;;28.60;99.90;;;;;;5215582;28;20036;-82
2022/06/07 07:33:52;;;;;;;1.45;1.35;;;27.50;99.90;;;;;;5215593;28;20102;-82
2022/06/07 07:36:24;;;;;;;1.17;1.08;;;27.00;99.90;;;;;;5221062;28;20036;-81
2022/06/07 07:38:56;;;;;;;3.70;1.40;;;26.60;99.90;;;;;;5216140;28;20029;-82
2022/06/07 07:41:31;;;;;;;1.25;1.15;;;26.00;99.90;;;;;;5216219;28;20038;-82
2022/06/07 07:44:05;;;;;;;1.38;1.27;;;25.80;99.90;;;;;;5216414;28;20451;-81
2022/06/07 07:46:43;;;;;;;1.33;1.13;;;25.60;99.90;;;;;;5250596;28;20020;-83
2022/06/07 07:49:18;;;;;;;1.17;1.08;;;25.50;99.90;;;;;;5250927;28;20035;-81
2022/06/07 07:51:53;;;;;;;1.63;1.52;;;25.60;99.90;;;;;;5251231;28;20031;-80
2022/06/07 07:54:25;;;;;;;1.30;1.20;;;25.30;99.90;;;;;;5230459;28;20016;-81
2022/06/07 07:57:00;;;;;;;1.40;1.30;;;25.10;99.90;;;;;;5248264;28;20617;-83
2022/06/07 07:59:33;;;;;;;1.40;1.30;;;24.80;99.90;;;;;;5251497;28;20573;-81
2022/06/07 08:02:06;;;;;;;1.00;1.00;;;24.80;99.90;;;;;;5253439;28;20036;-83
2022/06/07 08:04:38;;;;;;;1.52;1.25;;;25.10;99.90;;;;;;5242353;28;20044;-84
2022/06/07 08:07:10;;;;;;;4.32;1.10;;;24.70;99.90;;;;;;5221568;28;20041;-82
2022/06/07 08:09:44;;;;;;;1.08;1.05;;;24.70;99.90;;;;;;5233122;28;20028;-82
2022/06/07 08:12:18;;;;;;;;;;;25.00;99.90;;;;;;5252214;28;20021;-80
2022/06/07 08:14:52;;;;;;;1.10;1.10;;;24.50;99.90;;;;;;5233925;28;19900;-79
2022/06/07 08:17:28;;;;;;;1.10;1.00;;;24.50;99.90;;;;;;5251402;28;20016;-81
2022/06/07 08:20:05;;;;;;;1.15;1.05;;;24.50;99.90;;;;;;5252299;28;20030;-82
2022/06/07 08:22:39;;;;;;;1.05;0.93;;;24.60;99.90;;;;;;5246113;28;20476;-82
2022/06/07 08:25:10;;;;;;;1.27;1.17;;;24.20;99.90;;;;;;5243520;28;20017;-82
2022/06/07 08:27:42;;;;;;;1.77;1.10;;;24.10;99.90;;;;;;5250385;28;20032;-81
2022/06/07 08:30:16;;;;;;;2.58;1.17;;;24.20;99.90;;;;;;5250665;28;20033;-81
2022/06/07 08:32:48;;;;;;;2.15;1.30;;;24.40;99.90;;;;;;5222970;28;20044;-82
2022/06/07 08:38:13;;;;;;;1.10;1.00;;;24.10;99.90;;;;;;5250882;28;20029;-82
2022/06/07 08:40:45;;;;;;;1.27;1.20;;;24.50;99.90;;;;;;5232292;28;20035;-81
2022/06/07 08:43:26;;;;;;;1.20;1.00;;;24.20;99.90;;;;;;5240490;28;20042;-80
2022/06/07 08:46:00;;;;;;;1.15;1.05;;;24.10;99.90;;;;;;5234013;28;20483;-80
2022/06/07 08:48:40;;;;;;;1.27;1.17;;;24.50;99.90;;;;;;5254332;28;20030;-82
2022/06/07 08:51:38;;;;;;;0.93;0.93;;;24.70;99.90;;;;;;5236853;28;20034;-81
2022/06/07 08:54:19;;;;;;;1.27;1.17;;;24.60;99.90;;;;;;5244477;28;20025;-82
2022/06/07 08:56:53;;;;;;;6.95;1.42;;;24.10;99.90;;;;;;5233847;28;20556;-80
2022/06/07 08:59:30;;;;;;;1.00;0.98;;;24.00;99.90;;;;;;5233293;28;20029;-81
2022/06/07 09:02:51;;;;;;;1.02;1.00;;;24.20;99.90;;;;;;5233329;28;20031;-80
2022/06/07 09:05:26;;;;;;;3.35;1.20;;;24.20;99.90;;;;;;5202529;28;20060;-81
2022/06/07 09:07:59;;;;;;;2.75;1.25;;;24.20;99.90;;;;;;5227593;28;20256;-82
2022/06/07 09:13:38;;;;;;;1.30;1.20;;;24.10;99.90;;;;;;5230725;28;20039;-82
2022/06/07 09:16:12;;;;;;;1.30;1.20;;;24.60;99.90;;;;;;5215188;28;20029;-81
2022/06/07 09:18:46;;;;;;;1.65;1.02;;;24.90;99.90;;;;;;5233706;28;20021;-81
2022/06/07 09:21:39;;;;;;;1.13;1.02;;;24.80;99.90;;;;;;5215049;28;20029;-83
2022/06/07 09:24:35;;;;;;;0.90;0.90;;;24.10;99.90;;;;;;5249868;28;20028;-81
2022/06/07 09:27:22;;;;;;;1.42;1.30;;;24.70;99.90;;;;;;5267782;28;20028;-81
2022/06/07 09:29:59;;;;;;;1.05;0.90;;;25.10;99.90;;;;;;5274541;28;20019;-81
2022/06/07 09:32:37;;;;;;;1.20;1.08;;;25.10;99.90;;;;;;5257573;28;20212;-81
2022/06/07 09:35:33;;;;;;;1.20;1.10;;;25.40;99.90;;;;;;5274846;28;20034;-80
2022/06/07 09:38:11;;;;;;;1.00;1.00;;;25.10;99.90;;;;;;5248959;28;20072;-84
2022/06/07 09:41:36;;;;;;;1.33;1.05;;;25.40;99.90;;;;;;5253537;28;20020;-82
2022/06/07 09:44:25;;;;;;;2.15;1.20;;;24.70;99.90;;;;;;5253445;28;20037;-81
2022/06/07 09:47:06;;;;;;;1.75;1.40;;;24.40;99.90;;;;;;5226295;28;20031;-83
2022/06/07 09:49:38;;;;;;;1.75;1.10;;;24.40;99.90;;;;;;5237589;28;20043;-83
2022/06/07 09:52:45;;;;;;;1.30;1.20;;;24.90;99.90;;;;;;5244250;28;20021;-82
2022/06/07 09:55:19;;;;;;;1.30;1.10;;;24.90;99.90;;;;;;5253417;28;20370;-84
2022/06/07 09:58:12;;;;;;;2.43;1.70;;;24.40;99.90;;;;;;5235741;28;20024;-82
2022/06/07 10:01:00;;;;;;;1.08;0.95;;;24.20;99.90;;;;;;5253040;28;20528;-81
2022/06/07 10:03:43;;;;;;;1.65;0.98;;;24.10;99.90;;;;;;5253156;28;20033;-83
2022/06/07 10:06:34;;;;;;;1.52;1.25;;;24.20;99.90;;;;;;5238598;28;20045;-84
2022/06/07 10:09:19;;;;;;;1.38;1.27;;;24.40;99.90;;;;;;5211672;28;20036;-80
2022/06/07 10:11:59;;;;;;;1.35;1.25;;;24.40;99.90;;;;;;5230263;28;20028;-81
2022/06/07 10:14:49;;;;;;;1.50;1.20;;;24.20;99.90;;;;;;5231910;28;20023;-83
2022/06/07 10:17:21;;;;;;;2.38;1.30;;;24.90;99.90;;;;;;5232249;28;20519;-82
2022/06/07 10:19:58;;;;;;;1.50;1.13;;;26.00;99.90;;;;;;5245246;28;20036;-82
2022/06/07 10:22:35;;;;;;;1.27;1.17;;;25.70;99.90;;;;;;5244310;28;20039;-83
2022/06/07 10:25:23;;;;;;;2.33;1.25;;;25.80;99.90;;;;;;5208523;28;20037;-82
2022/06/07 10:28:17;;;;;;;1.60;1.50;;;25.70;99.90;;;;;;5239456;28;20035;-83
2022/06/07 10:31:13;;;;;;;1.48;1.38;;;26.00;99.90;;;;;;5230598;28;20024;-83
2022/06/07 10:33:57;;;;;;;1.48;1.38;;;26.90;99.90;;;;;;5246840;28;20059;-83
2022/06/07 10:36:56;;;;;;;1.52;1.27;;;26.90;99.90;;;;;;5218542;28;20048;-82
2022/06/07 10:39:53;;;;;;;1.92;1.52;;;27.30;99.90;;;;;;5248801;28;20025;-82
2022/06/07 10:42:38;;;;;;;1.60;1.25;;;27.90;99.90;;;;;;5147764;28;20081;-84
2022/06/07 10:45:19;;;;;;;1.65;1.55;;;28.10;99.90;;;;;;5147672;28;20019;-82
2022/06/07 10:48:07;;;;;;;1.85;1.65;;;26.90;99.90;;;;;;5213192;28;20041;-84
2022/06/07 10:50:45;;;;;;;1.60;1.50;;;26.20;99.90;;;;;;5249730;28;20024;-83
2022/06/07 10:53:25;;;;;;;1.60;1.50;;;26.50;99.90;;;;;;5231162;28;20021;-81
2022/06/07 10:56:16;;;;;;;2.67;1.33;;;26.80;99.90;;;;;;5213486;28;20363;-84
2022/06/07 10:58:54;;;;;;;1.80;1.33;;;26.20;99.90;;;;;;5213583;28;20043;-84
2022/06/07 11:01:55;;;;;;;2.15;1.58;;;26.50;99.90;;;;;;5213746;28;20040;-82
2022/06/07 11:10:36;;;;;;;1.70;1.60;;;25.80;99.90;;;;;;5230819;28;20025;-82
2022/06/07 11:13:10;;;;;;;1.80;1.70;;;25.20;99.90;;;;;;5213475;28;20013;-82
2022/06/07 11:15:51;;;;;;;1.92;1.77;;;25.00;99.90;;;;;;5214056;28;20676;-81
2022/06/07 11:18:26;;;;;;;1.60;1.50;;;24.80;99.90;;;;;;5250568;28;20036;-80
2022/06/07 11:21:01;;;;;;;1.88;1.70;;;24.60;99.90;;;;;;5243740;28;20043;-84
2022/06/07 11:23:58;;;;;;;1.75;1.60;;;24.50;99.90;;;;;;5273205;28;20024;-80
2022/06/07 11:26:41;;;;;;;2.65;1.92;;;23.90;99.90;;;;;;5228423;28;20028;-82
2022/06/07 11:29:22;;;;;;;4.65;1.85;;;23.50;99.90;;;;;;5228169;28;20028;-81
2022/06/07 11:31:54;;;;;;;1.88;1.70;;;23.40;99.90;;;;;;5245624;28;20035;-84
2022/06/07 11:34:34;;;;;;;2.00;1.70;;;23.30;99.90;;;;;;5238076;28;20031;-81
2022/06/07 11:37:10;;;;;;;2.17;1.77;;;23.10;99.90;;;;;;5272402;28;20040;-81
2022/06/07 11:39:41;;;;;;;2.47;1.90;;;22.90;99.90;;;;;;5272514;28;20024;-81
2022/06/07 11:42:13;;;;;;;2.05;1.75;;;23.10;99.90;;;;;;5272920;28;20030;-82
2022/06/07 11:44:46;;;;;;;2.05;1.75;;;23.00;99.90;;;;;;5267379;28;20016;-81
2022/06/07 11:47:27;;;;;;;1.48;1.38;;;22.80;99.90;;;;;;5229460;28;20023;-81
2022/06/07 11:50:04;;;;;;;1.45;1.35;;;22.60;99.90;;;;;;5230567;28;20033;-83
2022/06/07 11:52:53;;;;;;;1.67;1.50;;;22.30;99.90;;;;;;5241921;28;20463;-79
2022/06/07 11:55:38;;;;;;;1.48;1.38;;;22.10;99.90;;;;;;5233525;28;20021;-82
2022/06/07 11:58:12;;;;;;;2.55;1.90;;;22.00;99.90;;;;;;5251525;28;20050;-81
2022/06/07 12:00:48;;;;;;;2.33;1.77;;;21.90;99.90;;;;;;5233321;28;20033;-81
2022/06/07 12:03:33;;;;;;;3.38;2.00;;;21.70;99.90;;;;;;5251559;28;20032;-81
2022/06/07 12:06:23;;;;;;;2.10;1.65;;;21.80;99.90;;;;;;5240051;28;20040;-82
2022/06/07 12:09:03;;;;;;;1.77;1.60;;;21.50;99.90;;;;;;5234128;28;20465;-83
2022/06/07 12:11:46;;;;;;;3.45;1.90;;;20.90;99.90;;;;;;5260597;28;20030;-83
2022/06/07 12:14:38;;;;;;;2.00;1.70;;;20.30;99.90;;;;;;5253247;28;20016;-80
2022/06/07 12:17:21;;;;;;;2.53;2.10;;;19.80;99.90;;;;;;5245848;28;20017;-79
2022/06/07 12:19:53;;;;;;;2.10;1.83;;;19.40;99.90;;;;;;5244411;28;20028;-77
2022/06/07 12:22:30;;;;;;;2.88;1.95;;;19.20;99.90;;;;;;5198479;28;20098;-77
2022/06/07 12:25:15;;;;;;;2.67;1.73;;;19.00;99.90;;;;;;5234038;28;20024;-80
2022/06/07 12:27:51;;;;;;;3.90;2.40;;;18.80;99.90;;;;;;5201303;28;20032;-78
2022/06/07 12:30:30;;;;;;;2.38;2.17;;;18.50;99.90;;;;;;5232003;28;20040;-77
2022/06/07 12:33:21;;;;;;;5.00;2.70;;;18.40;99.90;;;;;;5233137;28;20427;-80
2022/06/07 12:36:15;;;;;;;2.88;2.33;;;18.20;99.90;;;;;;5241702;28;20042;-78
2022/06/07 12:38:48;;;;;;;2.55;2.35;;;18.20;99.90;;;;;;5236256;28;20924;-80
2022/06/07 12:41:27;;;;;;;3.22;2.42;;;18.10;99.90;;;;;;5201918;28;20037;-78
2022/06/07 12:44:01;;;;;;;2.45;2.25;;;18.00;99.90;;;;;;5250954;28;20329;-76
2022/06/07 12:46:46;;;;;;;2.78;2.53;;;18.00;99.90;;;;;;5253296;28;20088;-76
2022/06/07 12:49:22;;;;;;;2.95;2.65;;;18.00;99.90;;;;;;5237750;28;20032;-77
2022/06/07 12:52:01;;;;;;;3.85;2.47;;;18.00;99.90;;;;;;5233024;28;20024;-78
2022/06/07 12:54:34;;;;;;;2.92;2.70;;;18.00;99.90;;;;;;5274842;28;20024;-79
2022/06/07 12:57:23;;;;;;;3.13;2.67;;;18.00;99.90;;;;;;5274243;28;20030;-81
2022/06/07 13:00:13;;;;;;;3.63;3.10;;;18.20;99.90;;;;;;5231643;28;20054;-79
2022/06/07 13:02:48;;;;;;;3.95;3.30;;;18.30;99.90;;;;;;5232650;28;20390;-80
2022/06/07 13:05:29;;;;;;;5.13;2.80;;;18.40;99.90;;;;;;5204832;28;20106;-80
2022/06/07 13:08:12;;;;;;;3.75;3.38;;;18.50;99.90;;;;;;5231842;28;20059;-80
2022/06/07 13:10:47;;;;;;;3.80;3.30;;;18.70;99.90;;;;;;5235035;28;20035;-78
2022/06/07 13:13:35;;;;;;;4.50;3.45;;;18.70;99.90;;;;;;5236817;28;20626;-78
2022/06/07 13:16:09;;;;;;;3.13;2.75;;;18.80;99.90;;;;;;5245869;28;20523;-79
2022/06/07 13:18:57;;;;;;;3.08;2.72;;;19.00;99.90;;;;;;5253335;28;20017;-81
2022/06/07 13:21:41;;;;;;;2.78;2.50;;;19.10;99.90;;;;;;5234118;28;20063;-80
2022/06/07 13:24:21;;;;;;;3.23;2.30;;;19.20;99.90;;;;;;5252327;28;20328;-81
2022/06/07 13:26:58;;;;;;;4.82;2.42;;;19.10;99.90;;;;;;5234087;28;20596;-79
2022/06/07 13:29:39;;;;;;;2.40;2.20;;;18.90;99.90;;;;;;5252044;28;20024;-79
2022/06/07 13:32:23;;;;;;;2.90;2.58;;;18.90;99.90;;;;;;5247889;28;20032;-78
2022/06/07 13:35:03;;;;;;;2.80;2.30;;;18.70;99.90;;;;;;5232404;28;20057;-79
2022/06/07 13:37:37;;;;;;;3.65;2.50;;;18.40;99.90;;;;;;5234259;28;20024;-77
2022/06/07 13:40:35;;;;;;;3.15;2.60;;;18.30;99.90;;;;;;5233104;28;20046;-79
2022/06/07 13:43:22;;;;;;;2.42;2.22;;;18.10;99.90;;;;;;5239075;28;20034;-79
2022/06/07 13:45:55;;;;;;;3.15;2.80;;;18.10;99.90;;;;;;5222951;28;20034;-79
2022/06/07 13:53:21;;;;;;;6.28;2.45;;;18.10;99.90;;;;;;5237926;28;20024;-80
2022/06/07 13:54:25;;;;;;;;;;;18.00;99.90;;;;;;5235666;28;20040;-79
2022/06/07 13:56:59;;;;;;;2.70;2.50;;;17.90;99.90;;;;;;5224742;28;19911;-78
2022/06/07 13:59:30;;;;;;;4.47;3.40;;;17.90;99.90;;;;;;5236784;28;20034;-81
2022/06/07 14:02:01;;;;;;;2.70;2.50;;;17.80;99.90;;;;;;5238142;28;20021;-81